sensor_id;sensor_type;location;lat;lon;timestamp;P1;durP1;ratioP1;P2;durP2;ratioP2
76125;SDS011;65174;48.138;21.002;2023-04-15T00:01:40;1.23;;;1.13;;
76125;SDS011;65174;48.138;21.002;2023-04-15T00:04:43;1.13;;;1.02;;
76125;SDS011;65174;48.138;21.002;2023-04-15T00:07:48;1.33;;;1.00;;
76125;SDS011;65174;48.138;21.002;2023-04-15T00:10:50;0.88;;;0.80;;
76125;SDS011;65174;48.138;21.002;2023-04-15T00:13:52;1.80;;;1.60;;
76125;SDS011;65174;48.138;21.002;2023-04-15T00:16:55;1.20;;;1.10;;
76125;SDS011;65174;48.138;21.002;2023-04-15T00:19:58;1.27;;;1.17;;
76125;SDS011;65174;48.138;21.002;2023-04-15T00:23:01;1.25;;;1.15;;
76125;SDS011;65174;48.138;21.002;2023-04-15T00:26:04;2.00;;;1.27;;
76125;SDS011;65174;48.138;21.002;2023-04-15T00:29:06;0.90;;;0.90;;
76125;SDS011;65174;48.138;21.002;2023-04-15T00:32:10;1.25;;;0.98;;
76125;SDS011;65174;48.138;21.002;2023-04-15T00:35:14;2.00;;;1.60;;
76125;SDS011;65174;48.138;21.002;2023-04-15T00:38:17;1.13;;;0.93;;
76125;SDS011;65174;48.138;21.002;2023-04-15T00:41:19;0.57;;;0.45;;
76125;SDS011;65174;48.138;21.002;2023-04-15T00:44:21;1.00;;;0.83;;
76125;SDS011;65174;48.138;21.002;2023-04-15T00:47:23;1.25;;;1.15;;
76125;SDS011;65174;48.138;21.002;2023-04-15T00:50:27;1.65;;;1.55;;
76125;SDS011;65174;48.138;21.002;2023-04-15T00:53:29;0.95;;;0.90;;
76125;SDS011;65174;48.138;21.002;2023-04-15T00:56:33;1.13;;;0.65;;
76125;SDS011;65174;48.138;21.002;2023-04-15T00:59:36;1.57;;;1.47;;
76125;SDS011;65174;48.138;21.002;2023-04-15T01:02:38;1.42;;;1.33;;
76125;SDS011;65174;48.138;21.002;2023-04-15T01:05:41;1.52;;;1.20;;
76125;SDS011;65174;48.138;21.002;2023-04-15T01:08:43;1.52;;;1.42;;
76125;SDS011;65174;48.138;21.002;2023-04-15T01:11:50;1.60;;;1.48;;
76125;SDS011;65174;48.138;21.002;2023-04-15T01:14:52;1.13;;;1.03;;
76125;SDS011;65174;48.138;21.002;2023-04-15T01:17:58;2.08;;;1.88;;
76125;SDS011;65174;48.138;21.002;2023-04-15T01:21:00;1.63;;;1.42;;
76125;SDS011;65174;48.138;21.002;2023-04-15T01:24:07;3.00;;;1.55;;
76125;SDS011;65174;48.138;21.002;2023-04-15T01:27:11;1.65;;;1.55;;
76125;SDS011;65174;48.138;21.002;2023-04-15T01:30:13;2.03;;;1.90;;
76125;SDS011;65174;48.138;21.002;2023-04-15T01:33:16;1.73;;;1.63;;
76125;SDS011;65174;48.138;21.002;2023-04-15T01:36:19;4.05;;;2.45;;
76125;SDS011;65174;48.138;21.002;2023-04-15T01:39:21;1.80;;;1.25;;
76125;SDS011;65174;48.138;21.002;2023-04-15T01:42:24;1.65;;;1.30;;
76125;SDS011;65174;48.138;21.002;2023-04-15T01:45:27;1.30;;;1.10;;
76125;SDS011;65174;48.138;21.002;2023-04-15T01:48:29;3.72;;;2.17;;
76125;SDS011;65174;48.138;21.002;2023-04-15T01:51:31;2.85;;;1.90;;
76125;SDS011;65174;48.138;21.002;2023-04-15T01:54:33;1.73;;;1.63;;
76125;SDS011;65174;48.138;21.002;2023-04-15T01:57:35;2.22;;;1.65;;
76125;SDS011;65174;48.138;21.002;2023-04-15T02:00:37;2.77;;;2.10;;
76125;SDS011;65174;48.138;21.002;2023-04-15T02:03:39;2.38;;;1.95;;
76125;SDS011;65174;48.138;21.002;2023-04-15T02:06:42;2.22;;;1.88;;
76125;SDS011;65174;48.138;21.002;2023-04-15T02:09:45;2.50;;;2.08;;
76125;SDS011;65174;48.138;21.002;2023-04-15T02:12:48;2.33;;;1.77;;
76125;SDS011;65174;48.138;21.002;2023-04-15T02:15:50;2.53;;;1.97;;
76125;SDS011;65174;48.138;21.002;2023-04-15T02:18:54;2.00;;;1.80;;
76125;SDS011;65174;48.138;21.002;2023-04-15T02:21:56;2.78;;;1.88;;
76125;SDS011;65174;48.138;21.002;2023-04-15T02:24:58;3.42;;;2.55;;
76125;SDS011;65174;48.138;21.002;2023-04-15T02:28:00;1.50;;;1.40;;
76125;SDS011;65174;48.138;21.002;2023-04-15T02:31:05;2.10;;;1.90;;
76125;SDS011;65174;48.138;21.002;2023-04-15T02:34:07;1.98;;;1.60;;
76125;SDS011;65174;48.138;21.002;2023-04-15T02:37:10;1.88;;;1.70;;
76125;SDS011;65174;48.138;21.002;2023-04-15T02:40:13;2.40;;;1.67;;
76125;SDS011;65174;48.138;21.002;2023-04-15T02:43:15;2.80;;;1.60;;
76125;SDS011;65174;48.138;21.002;2023-04-15T02:46:20;2.07;;;1.47;;
76125;SDS011;65174;48.138;21.002;2023-04-15T02:49:24;3.30;;;1.80;;
76125;SDS011;65174;48.138;21.002;2023-04-15T02:52:26;1.63;;;1.52;;
76125;SDS011;65174;48.138;21.002;2023-04-15T02:55:28;2.45;;;2.10;;
76125;SDS011;65174;48.138;21.002;2023-04-15T02:58:30;2.40;;;2.03;;
76125;SDS011;65174;48.138;21.002;2023-04-15T03:01:32;2.60;;;1.77;;
76125;SDS011;65174;48.138;21.002;2023-04-15T03:04:34;2.38;;;2.20;;
76125;SDS011;65174;48.138;21.002;2023-04-15T03:07:37;1.88;;;1.48;;
76125;SDS011;65174;48.138;21.002;2023-04-15T03:10:41;2.03;;;1.48;;
76125;SDS011;65174;48.138;21.002;2023-04-15T03:13:43;2.08;;;1.88;;
76125;SDS011;65174;48.138;21.002;2023-04-15T03:16:57;1.10;;;1.00;;
76125;SDS011;65174;48.138;21.002;2023-04-15T03:20:00;1.52;;;1.42;;
76125;SDS011;65174;48.138;21.002;2023-04-15T03:23:06;0.95;;;0.75;;
76125;SDS011;65174;48.138;21.002;2023-04-15T03:26:08;2.17;;;1.60;;
76125;SDS011;65174;48.138;21.002;2023-04-15T03:29:10;1.88;;;1.65;;
76125;SDS011;65174;48.138;21.002;2023-04-15T03:32:13;3.30;;;1.87;;
76125;SDS011;65174;48.138;21.002;2023-04-15T03:35:16;3.17;;;2.22;;
76125;SDS011;65174;48.138;21.002;2023-04-15T03:38:18;1.63;;;1.52;;
76125;SDS011;65174;48.138;21.002;2023-04-15T03:41:21;1.73;;;1.45;;
76125;SDS011;65174;48.138;21.002;2023-04-15T03:44:23;1.67;;;1.48;;
76125;SDS011;65174;48.138;21.002;2023-04-15T03:47:25;2.43;;;2.00;;
76125;SDS011;65174;48.138;21.002;2023-04-15T03:50:27;5.20;;;2.15;;
76125;SDS011;65174;48.138;21.002;2023-04-15T03:53:29;1.33;;;1.23;;
76125;SDS011;65174;48.138;21.002;2023-04-15T03:56:31;2.00;;;1.73;;
76125;SDS011;65174;48.138;21.002;2023-04-15T03:59:33;2.45;;;2.20;;
76125;SDS011;65174;48.138;21.002;2023-04-15T04:02:35;3.90;;;1.40;;
76125;SDS011;65174;48.138;21.002;2023-04-15T04:05:37;2.15;;;1.63;;
76125;SDS011;65174;48.138;21.002;2023-04-15T04:08:42;1.50;;;1.40;;
76125;SDS011;65174;48.138;21.002;2023-04-15T04:11:44;1.77;;;1.60;;
76125;SDS011;65174;48.138;21.002;2023-04-15T04:14:46;1.75;;;1.65;;
76125;SDS011;65174;48.138;21.002;2023-04-15T04:17:48;2.93;;;2.33;;
76125;SDS011;65174;48.138;21.002;2023-04-15T04:20:51;2.70;;;2.33;;
76125;SDS011;65174;48.138;21.002;2023-04-15T04:23:53;2.88;;;2.05;;
76125;SDS011;65174;48.138;21.002;2023-04-15T04:26:55;2.30;;;2.10;;
76125;SDS011;65174;48.138;21.002;2023-04-15T04:29:57;1.48;;;1.38;;
76125;SDS011;65174;48.138;21.002;2023-04-15T04:32:59;3.20;;;1.70;;
76125;SDS011;65174;48.138;21.002;2023-04-15T04:36:01;1.80;;;1.52;;
76125;SDS011;65174;48.138;21.002;2023-04-15T04:39:04;4.13;;;1.50;;
76125;SDS011;65174;48.138;21.002;2023-04-15T04:42:05;0.98;;;0.98;;
76125;SDS011;65174;48.138;21.002;2023-04-15T04:45:07;0.43;;;0.40;;
76125;SDS011;65174;48.138;21.002;2023-04-15T04:48:10;0.90;;;0.90;;
76125;SDS011;65174;48.138;21.002;2023-04-15T04:51:12;1.00;;;0.95;;
76125;SDS011;65174;48.138;21.002;2023-04-15T04:54:14;2.13;;;1.55;;
76125;SDS011;65174;48.138;21.002;2023-04-15T04:57:16;3.40;;;2.08;;
76125;SDS011;65174;48.138;21.002;2023-04-15T05:00:18;1.50;;;1.23;;
76125;SDS011;65174;48.138;21.002;2023-04-15T05:03:21;1.40;;;1.30;;
76125;SDS011;65174;48.138;21.002;2023-04-15T05:06:23;3.63;;;1.35;;
76125;SDS011;65174;48.138;21.002;2023-04-15T05:09:25;1.92;;;1.10;;
76125;SDS011;65174;48.138;21.002;2023-04-15T05:12:27;2.33;;;1.50;;
76125;SDS011;65174;48.138;21.002;2023-04-15T05:15:29;1.80;;;1.70;;
76125;SDS011;65174;48.138;21.002;2023-04-15T05:18:31;3.03;;;1.40;;
76125;SDS011;65174;48.138;21.002;2023-04-15T05:21:33;1.67;;;1.58;;
76125;SDS011;65174;48.138;21.002;2023-04-15T05:24:34;2.38;;;1.83;;
76125;SDS011;65174;48.138;21.002;2023-04-15T05:27:36;1.48;;;1.38;;
76125;SDS011;65174;48.138;21.002;2023-04-15T05:30:38;2.85;;;1.80;;
76125;SDS011;65174;48.138;21.002;2023-04-15T05:33:41;2.00;;;1.77;;
76125;SDS011;65174;48.138;21.002;2023-04-15T05:36:43;2.42;;;2.22;;
76125;SDS011;65174;48.138;21.002;2023-04-15T05:39:45;2.88;;;2.22;;
76125;SDS011;65174;48.138;21.002;2023-04-15T05:42:47;3.13;;;2.85;;
76125;SDS011;65174;48.138;21.002;2023-04-15T05:45:49;1.65;;;1.35;;
76125;SDS011;65174;48.138;21.002;2023-04-15T05:48:51;4.17;;;2.50;;
76125;SDS011;65174;48.138;21.002;2023-04-15T05:51:56;2.78;;;1.67;;
76125;SDS011;65174;48.138;21.002;2023-04-15T05:54:58;2.85;;;2.42;;
76125;SDS011;65174;48.138;21.002;2023-04-15T05:58:00;2.28;;;2.08;;
76125;SDS011;65174;48.138;21.002;2023-04-15T06:01:02;3.03;;;2.58;;
76125;SDS011;65174;48.138;21.002;2023-04-15T06:04:04;2.00;;;1.63;;
76125;SDS011;65174;48.138;21.002;2023-04-15T06:07:07;3.17;;;2.47;;
76125;SDS011;65174;48.138;21.002;2023-04-15T06:10:09;1.63;;;1.52;;
76125;SDS011;65174;48.138;21.002;2023-04-15T06:13:11;2.78;;;2.47;;
76125;SDS011;65174;48.138;21.002;2023-04-15T06:16:13;3.42;;;2.13;;
76125;SDS011;65174;48.138;21.002;2023-04-15T06:19:15;2.67;;;2.40;;
76125;SDS011;65174;48.138;21.002;2023-04-15T06:22:17;2.30;;;1.88;;
76125;SDS011;65174;48.138;21.002;2023-04-15T06:25:19;3.58;;;2.30;;
76125;SDS011;65174;48.138;21.002;2023-04-15T06:28:21;2.63;;;2.40;;
76125;SDS011;65174;48.138;21.002;2023-04-15T06:31:23;1.67;;;1.58;;
76125;SDS011;65174;48.138;21.002;2023-04-15T06:34:25;2.80;;;2.20;;
76125;SDS011;65174;48.138;21.002;2023-04-15T06:37:27;1.50;;;1.40;;
76125;SDS011;65174;48.138;21.002;2023-04-15T06:40:29;1.50;;;1.40;;
76125;SDS011;65174;48.138;21.002;2023-04-15T06:43:32;2.17;;;1.70;;
76125;SDS011;65174;48.138;21.002;2023-04-15T06:46:34;3.70;;;2.75;;
76125;SDS011;65174;48.138;21.002;2023-04-15T06:49:36;3.80;;;2.87;;
76125;SDS011;65174;48.138;21.002;2023-04-15T06:52:38;4.78;;;2.88;;
76125;SDS011;65174;48.138;21.002;2023-04-15T06:55:40;1.95;;;1.65;;
76125;SDS011;65174;48.138;21.002;2023-04-15T06:58:42;2.40;;;1.95;;
76125;SDS011;65174;48.138;21.002;2023-04-15T07:01:44;3.78;;;2.70;;
76125;SDS011;65174;48.138;21.002;2023-04-15T07:04:47;4.47;;;2.93;;
76125;SDS011;65174;48.138;21.002;2023-04-15T07:07:49;2.22;;;2.05;;
76125;SDS011;65174;48.138;21.002;2023-04-15T07:10:51;2.85;;;2.30;;
76125;SDS011;65174;48.138;21.002;2023-04-15T07:13:54;2.67;;;2.30;;
76125;SDS011;65174;48.138;21.002;2023-04-15T07:16:59;2.03;;;1.80;;
76125;SDS011;65174;48.138;21.002;2023-04-15T07:20:01;2.67;;;1.93;;
76125;SDS011;65174;48.138;21.002;2023-04-15T07:23:05;1.65;;;1.55;;
76125;SDS011;65174;48.138;21.002;2023-04-15T07:26:07;2.55;;;2.35;;
76125;SDS011;65174;48.138;21.002;2023-04-15T07:29:10;2.63;;;2.05;;
76125;SDS011;65174;48.138;21.002;2023-04-15T07:32:12;2.67;;;1.60;;
76125;SDS011;65174;48.138;21.002;2023-04-15T07:35:14;1.60;;;1.37;;
76125;SDS011;65174;48.138;21.002;2023-04-15T07:38:16;1.90;;;1.80;;
76125;SDS011;65174;48.138;21.002;2023-04-15T07:41:18;2.78;;;2.13;;
76125;SDS011;65174;48.138;21.002;2023-04-15T07:44:21;2.97;;;2.25;;
76125;SDS011;65174;48.138;21.002;2023-04-15T07:47:23;2.53;;;2.33;;
76125;SDS011;65174;48.138;21.002;2023-04-15T07:50:26;4.30;;;2.97;;
76125;SDS011;65174;48.138;21.002;2023-04-15T07:53:29;2.70;;;2.38;;
76125;SDS011;65174;48.138;21.002;2023-04-15T07:56:31;2.42;;;2.13;;
76125;SDS011;65174;48.138;21.002;2023-04-15T07:59:33;4.03;;;2.25;;
76125;SDS011;65174;48.138;21.002;2023-04-15T08:02:35;3.60;;;2.67;;
76125;SDS011;65174;48.138;21.002;2023-04-15T08:05:41;2.70;;;1.93;;
76125;SDS011;65174;48.138;21.002;2023-04-15T08:08:43;2.70;;;2.25;;
76125;SDS011;65174;48.138;21.002;2023-04-15T08:11:47;3.08;;;2.38;;
76125;SDS011;65174;48.138;21.002;2023-04-15T08:14:49;3.83;;;2.72;;
76125;SDS011;65174;48.138;21.002;2023-04-15T08:17:51;3.60;;;2.90;;
76125;SDS011;65174;48.138;21.002;2023-04-15T08:20:53;2.67;;;2.33;;
76125;SDS011;65174;48.138;21.002;2023-04-15T08:23:56;2.45;;;2.25;;
76125;SDS011;65174;48.138;21.002;2023-04-15T08:26:57;2.53;;;1.75;;
76125;SDS011;65174;48.138;21.002;2023-04-15T08:30:00;2.65;;;2.20;;
76125;SDS011;65174;48.138;21.002;2023-04-15T08:33:05;2.53;;;1.98;;
76125;SDS011;65174;48.138;21.002;2023-04-15T08:36:07;2.73;;;1.87;;
76125;SDS011;65174;48.138;21.002;2023-04-15T08:39:09;2.45;;;2.08;;
76125;SDS011;65174;48.138;21.002;2023-04-15T08:42:15;2.25;;;2.05;;
76125;SDS011;65174;48.138;21.002;2023-04-15T08:45:17;2.42;;;1.38;;
76125;SDS011;65174;48.138;21.002;2023-04-15T08:48:20;1.85;;;1.60;;
76125;SDS011;65174;48.138;21.002;2023-04-15T08:51:25;2.23;;;1.93;;
76125;SDS011;65174;48.138;21.002;2023-04-15T08:54:28;2.70;;;1.70;;
76125;SDS011;65174;48.138;21.002;2023-04-15T08:57:31;1.85;;;1.63;;
76125;SDS011;65174;48.138;21.002;2023-04-15T09:00:34;3.25;;;2.30;;
76125;SDS011;65174;48.138;21.002;2023-04-15T09:03:36;2.22;;;1.83;;
76125;SDS011;65174;48.138;21.002;2023-04-15T09:06:39;2.87;;;1.90;;
76125;SDS011;65174;48.138;21.002;2023-04-15T09:09:41;2.22;;;1.52;;
76125;SDS011;65174;48.138;21.002;2023-04-15T09:12:44;2.53;;;2.15;;
76125;SDS011;65174;48.138;21.002;2023-04-15T09:15:46;2.13;;;1.80;;
76125;SDS011;65174;48.138;21.002;2023-04-15T09:18:49;3.85;;;2.05;;
76125;SDS011;65174;48.138;21.002;2023-04-15T09:21:52;2.40;;;1.87;;
76125;SDS011;65174;48.138;21.002;2023-04-15T09:24:59;2.72;;;1.52;;
76125;SDS011;65174;48.138;21.002;2023-04-15T09:28:02;1.35;;;0.93;;
76125;SDS011;65174;48.138;21.002;2023-04-15T09:31:03;0.63;;;0.52;;
76125;SDS011;65174;48.138;21.002;2023-04-15T09:34:06;1.40;;;1.30;;
76125;SDS011;65174;48.138;21.002;2023-04-15T09:37:08;2.63;;;1.73;;
76125;SDS011;65174;48.138;21.002;2023-04-15T09:40:11;1.55;;;1.42;;
76125;SDS011;65174;48.138;21.002;2023-04-15T09:43:13;1.67;;;1.42;;
76125;SDS011;65174;48.138;21.002;2023-04-15T09:46:17;0.95;;;0.80;;
76125;SDS011;65174;48.138;21.002;2023-04-15T09:49:19;1.30;;;1.20;;
76125;SDS011;65174;48.138;21.002;2023-04-15T09:52:22;1.00;;;0.90;;
76125;SDS011;65174;48.138;21.002;2023-04-15T09:55:24;0.88;;;0.88;;
76125;SDS011;65174;48.138;21.002;2023-04-15T09:58:29;1.05;;;0.95;;
76125;SDS011;65174;48.138;21.002;2023-04-15T10:01:34;1.38;;;1.23;;
76125;SDS011;65174;48.138;21.002;2023-04-15T10:04:39;1.30;;;1.20;;
76125;SDS011;65174;48.138;21.002;2023-04-15T10:07:42;1.20;;;1.00;;
76125;SDS011;65174;48.138;21.002;2023-04-15T10:10:45;3.05;;;1.40;;
76125;SDS011;65174;48.138;21.002;2023-04-15T10:13:48;1.25;;;1.15;;
76125;SDS011;65174;48.138;21.002;2023-04-15T10:16:51;0.85;;;0.85;;
76125;SDS011;65174;48.138;21.002;2023-04-15T10:19:56;0.93;;;0.90;;
76125;SDS011;65174;48.138;21.002;2023-04-15T10:23:01;0.50;;;0.50;;
76125;SDS011;65174;48.138;21.002;2023-04-15T10:26:04;1.17;;;1.00;;
76125;SDS011;65174;48.138;21.002;2023-04-15T10:29:06;1.05;;;0.95;;
76125;SDS011;65174;48.138;21.002;2023-04-15T10:32:10;1.35;;;1.13;;
76125;SDS011;65174;48.138;21.002;2023-04-15T10:35:12;1.17;;;1.08;;
76125;SDS011;65174;48.138;21.002;2023-04-15T10:41:39;0.85;;;0.85;;
76125;SDS011;65174;48.138;21.002;2023-04-15T10:44:42;1.38;;;0.70;;
76125;SDS011;65174;48.138;21.002;2023-04-15T10:47:55;0.82;;;0.82;;
76125;SDS011;65174;48.138;21.002;2023-04-15T10:51:01;1.30;;;1.20;;
76125;SDS011;65174;48.138;21.002;2023-04-15T10:54:08;1.40;;;0.90;;
76125;SDS011;65174;48.138;21.002;2023-04-15T10:57:21;0.80;;;0.73;;
76125;SDS011;65174;48.138;21.002;2023-04-15T11:00:24;0.82;;;0.80;;
76125;SDS011;65174;48.138;21.002;2023-04-15T11:03:39;0.98;;;0.98;;
76125;SDS011;65174;48.138;21.002;2023-04-15T11:06:43;0.93;;;0.90;;
76125;SDS011;65174;48.138;21.002;2023-04-15T11:09:46;0.50;;;0.50;;
76125;SDS011;65174;48.138;21.002;2023-04-15T11:12:49;0.65;;;0.65;;
76125;SDS011;65174;48.138;21.002;2023-04-15T11:15:54;1.60;;;0.77;;
76125;SDS011;65174;48.138;21.002;2023-04-15T11:18:58;1.25;;;1.00;;
76125;SDS011;65174;48.138;21.002;2023-04-15T11:22:06;1.95;;;1.65;;
76125;SDS011;65174;48.138;21.002;2023-04-15T11:25:20;1.50;;;1.10;;
76125;SDS011;65174;48.138;21.002;2023-04-15T11:28:26;1.08;;;0.90;;
76125;SDS011;65174;48.138;21.002;2023-04-15T11:31:32;1.83;;;0.90;;
76125;SDS011;65174;48.138;21.002;2023-04-15T11:34:34;0.60;;;0.60;;
76125;SDS011;65174;48.138;21.002;2023-04-15T11:37:36;1.45;;;0.90;;
76125;SDS011;65174;48.138;21.002;2023-04-15T11:40:39;1.10;;;1.00;;
76125;SDS011;65174;48.138;21.002;2023-04-15T11:43:43;1.23;;;1.00;;
76125;SDS011;65174;48.138;21.002;2023-04-15T11:46:45;1.27;;;0.85;;
76125;SDS011;65174;48.138;21.002;2023-04-15T11:49:47;0.70;;;0.68;;
76125;SDS011;65174;48.138;21.002;2023-04-15T11:55:57;0.90;;;0.90;;
76125;SDS011;65174;48.138;21.002;2023-04-15T11:58:59;0.88;;;0.82;;
76125;SDS011;65174;48.138;21.002;2023-04-15T12:02:10;1.35;;;1.20;;
76125;SDS011;65174;48.138;21.002;2023-04-15T12:05:13;0.85;;;0.85;;
76125;SDS011;65174;48.138;21.002;2023-04-15T12:08:15;0.63;;;0.63;;
76125;SDS011;65174;48.138;21.002;2023-04-15T12:11:18;0.50;;;0.50;;
76125;SDS011;65174;48.138;21.002;2023-04-15T12:14:23;0.82;;;0.60;;
76125;SDS011;65174;48.138;21.002;2023-04-15T12:17:25;0.90;;;0.80;;
76125;SDS011;65174;48.138;21.002;2023-04-15T12:20:29;0.77;;;0.65;;
76125;SDS011;65174;48.138;21.002;2023-04-15T12:23:35;1.25;;;0.98;;
76125;SDS011;65174;48.138;21.002;2023-04-15T12:29:44;1.85;;;0.75;;
76125;SDS011;65174;48.138;21.002;2023-04-15T12:32:46;0.82;;;0.82;;
76125;SDS011;65174;48.138;21.002;2023-04-15T12:35:49;0.70;;;0.68;;
76125;SDS011;65174;48.138;21.002;2023-04-15T12:38:51;0.70;;;0.65;;
76125;SDS011;65174;48.138;21.002;2023-04-15T12:41:54;0.70;;;0.70;;
76125;SDS011;65174;48.138;21.002;2023-04-15T12:44:56;0.65;;;0.65;;
76125;SDS011;65174;48.138;21.002;2023-04-15T12:47:58;0.65;;;0.65;;
76125;SDS011;65174;48.138;21.002;2023-04-15T12:51:00;0.98;;;0.80;;
76125;SDS011;65174;48.138;21.002;2023-04-15T12:54:03;0.70;;;0.70;;
76125;SDS011;65174;48.138;21.002;2023-04-15T12:57:06;1.13;;;1.03;;
76125;SDS011;65174;48.138;21.002;2023-04-15T13:00:08;0.80;;;0.70;;
76125;SDS011;65174;48.138;21.002;2023-04-15T13:03:11;0.70;;;0.70;;
76125;SDS011;65174;48.138;21.002;2023-04-15T13:06:13;1.02;;;0.90;;
76125;SDS011;65174;48.138;21.002;2023-04-15T13:09:15;0.75;;;0.75;;
76125;SDS011;65174;48.138;21.002;2023-04-15T13:12:17;1.03;;;1.03;;
76125;SDS011;65174;48.138;21.002;2023-04-15T13:15:19;3.75;;;0.90;;
76125;SDS011;65174;48.138;21.002;2023-04-15T13:18:23;2.90;;;1.10;;
76125;SDS011;65174;48.138;21.002;2023-04-15T13:21:25;2.00;;;1.55;;
76125;SDS011;65174;48.138;21.002;2023-04-15T13:24:27;2.33;;;1.33;;
76125;SDS011;65174;48.138;21.002;2023-04-15T13:27:29;2.33;;;1.30;;
76125;SDS011;65174;48.138;21.002;2023-04-15T13:30:32;0.50;;;0.50;;
76125;SDS011;65174;48.138;21.002;2023-04-15T13:33:34;0.68;;;0.52;;
76125;SDS011;65174;48.138;21.002;2023-04-15T13:36:35;0.75;;;0.75;;
76125;SDS011;65174;48.138;21.002;2023-04-15T13:39:37;0.50;;;0.50;;
76125;SDS011;65174;48.138;21.002;2023-04-15T13:42:40;0.50;;;0.50;;
76125;SDS011;65174;48.138;21.002;2023-04-15T13:45:43;0.38;;;0.38;;
76125;SDS011;65174;48.138;21.002;2023-04-15T13:48:47;0.60;;;0.50;;
76125;SDS011;65174;48.138;21.002;2023-04-15T13:51:49;0.50;;;0.50;;
76125;SDS011;65174;48.138;21.002;2023-04-15T13:54:52;0.50;;;0.50;;
76125;SDS011;65174;48.138;21.002;2023-04-15T13:58:13;0.60;;;0.57;;
76125;SDS011;65174;48.138;21.002;2023-04-15T14:01:16;0.50;;;0.50;;
76125;SDS011;65174;48.138;21.002;2023-04-15T14:04:18;0.47;;;0.47;;
76125;SDS011;65174;48.138;21.002;2023-04-15T14:07:20;0.70;;;0.70;;
76125;SDS011;65174;48.138;21.002;2023-04-15T14:10:22;0.55;;;0.38;;
76125;SDS011;65174;48.138;21.002;2023-04-15T14:13:24;0.63;;;0.63;;
76125;SDS011;65174;48.138;21.002;2023-04-15T14:16:26;0.80;;;0.77;;
76125;SDS011;65174;48.138;21.002;2023-04-15T14:19:30;0.65;;;0.65;;
76125;SDS011;65174;48.138;21.002;2023-04-15T14:22:32;0.73;;;0.45;;
76125;SDS011;65174;48.138;21.002;2023-04-15T14:25:34;2.60;;;1.17;;
76125;SDS011;65174;48.138;21.002;2023-04-15T14:28:36;1.47;;;0.60;;
76125;SDS011;65174;48.138;21.002;2023-04-15T14:31:39;1.08;;;1.00;;
76125;SDS011;65174;48.138;21.002;2023-04-15T14:34:42;1.20;;;0.60;;
76125;SDS011;65174;48.138;21.002;2023-04-15T14:37:44;1.17;;;0.77;;
76125;SDS011;65174;48.138;21.002;2023-04-15T14:40:46;0.70;;;0.70;;
76125;SDS011;65174;48.138;21.002;2023-04-15T14:43:48;2.20;;;0.90;;
76125;SDS011;65174;48.138;21.002;2023-04-15T14:46:50;1.13;;;0.63;;
76125;SDS011;65174;48.138;21.002;2023-04-15T14:49:53;0.63;;;0.63;;
76125;SDS011;65174;48.138;21.002;2023-04-15T14:52:55;1.10;;;0.88;;
76125;SDS011;65174;48.138;21.002;2023-04-15T14:55:57;0.65;;;0.52;;
76125;SDS011;65174;48.138;21.002;2023-04-15T14:58:59;0.40;;;0.40;;
76125;SDS011;65174;48.138;21.002;2023-04-15T15:02:01;0.73;;;0.68;;
76125;SDS011;65174;48.138;21.002;2023-04-15T15:05:04;0.40;;;0.40;;
76125;SDS011;65174;48.138;21.002;2023-04-15T15:08:07;0.45;;;0.45;;
76125;SDS011;65174;48.138;21.002;2023-04-15T15:11:09;1.08;;;0.98;;
76125;SDS011;65174;48.138;21.002;2023-04-15T15:14:11;0.70;;;0.70;;
76125;SDS011;65174;48.138;21.002;2023-04-15T15:17:13;0.93;;;0.73;;
76125;SDS011;65174;48.138;21.002;2023-04-15T15:20:16;0.88;;;0.88;;
76125;SDS011;65174;48.138;21.002;2023-04-15T15:23:19;0.57;;;0.57;;
76125;SDS011;65174;48.138;21.002;2023-04-15T15:26:21;1.70;;;1.25;;
76125;SDS011;65174;48.138;21.002;2023-04-15T15:29:24;2.80;;;1.30;;
76125;SDS011;65174;48.138;21.002;2023-04-15T15:32:26;0.50;;;0.50;;
76125;SDS011;65174;48.138;21.002;2023-04-15T15:35:28;0.73;;;0.70;;
76125;SDS011;65174;48.138;21.002;2023-04-15T15:38:30;0.73;;;0.60;;
76125;SDS011;65174;48.138;21.002;2023-04-15T15:41:32;1.83;;;0.60;;
76125;SDS011;65174;48.138;21.002;2023-04-15T15:44:34;1.00;;;0.80;;
76125;SDS011;65174;48.138;21.002;2023-04-15T15:47:39;0.73;;;0.60;;
76125;SDS011;65174;48.138;21.002;2023-04-15T15:50:42;0.45;;;0.45;;
76125;SDS011;65174;48.138;21.002;2023-04-15T15:53:46;0.47;;;0.40;;
76125;SDS011;65174;48.138;21.002;2023-04-15T15:56:48;0.77;;;0.70;;
76125;SDS011;65174;48.138;21.002;2023-04-15T15:59:51;0.70;;;0.50;;
76125;SDS011;65174;48.138;21.002;2023-04-15T16:03:10;0.80;;;0.50;;
76125;SDS011;65174;48.138;21.002;2023-04-15T16:06:12;1.70;;;0.70;;
76125;SDS011;65174;48.138;21.002;2023-04-15T16:09:14;0.68;;;0.68;;
76125;SDS011;65174;48.138;21.002;2023-04-15T16:12:16;0.50;;;0.50;;
76125;SDS011;65174;48.138;21.002;2023-04-15T16:15:18;0.50;;;0.50;;
76125;SDS011;65174;48.138;21.002;2023-04-15T16:18:20;0.43;;;0.43;;
76125;SDS011;65174;48.138;21.002;2023-04-15T16:21:30;0.60;;;0.60;;
76125;SDS011;65174;48.138;21.002;2023-04-15T16:24:32;0.63;;;0.43;;
76125;SDS011;65174;48.138;21.002;2023-04-15T16:27:35;0.68;;;0.68;;
76125;SDS011;65174;48.138;21.002;2023-04-15T16:30:57;0.40;;;0.30;;
76125;SDS011;65174;48.138;21.002;2023-04-15T16:34:00;0.50;;;0.50;;
76125;SDS011;65174;48.138;21.002;2023-04-15T16:37:02;0.60;;;0.60;;
76125;SDS011;65174;48.138;21.002;2023-04-15T16:40:05;0.50;;;0.50;;
76125;SDS011;65174;48.138;21.002;2023-04-15T16:43:08;0.77;;;0.60;;
76125;SDS011;65174;48.138;21.002;2023-04-15T16:46:13;0.50;;;0.50;;
76125;SDS011;65174;48.138;21.002;2023-04-15T16:49:15;0.60;;;0.60;;
76125;SDS011;65174;48.138;21.002;2023-04-15T16:52:17;1.08;;;0.98;;
76125;SDS011;65174;48.138;21.002;2023-04-15T16:55:19;1.38;;;1.17;;
76125;SDS011;65174;48.138;21.002;2023-04-15T16:58:21;2.13;;;1.38;;
76125;SDS011;65174;48.138;21.002;2023-04-15T17:01:23;1.00;;;0.90;;
76125;SDS011;65174;48.138;21.002;2023-04-15T17:04:26;1.35;;;1.27;;
76125;SDS011;65174;48.138;21.002;2023-04-15T17:07:29;2.45;;;1.98;;
76125;SDS011;65174;48.138;21.002;2023-04-15T17:10:31;6.03;;;4.35;;
76125;SDS011;65174;48.138;21.002;2023-04-15T17:13:33;4.03;;;3.35;;
76125;SDS011;65174;48.138;21.002;2023-04-15T17:16:35;3.80;;;3.03;;
76125;SDS011;65174;48.138;21.002;2023-04-15T17:19:37;3.67;;;3.00;;
76125;SDS011;65174;48.138;21.002;2023-04-15T17:22:40;2.30;;;2.10;;
76125;SDS011;65174;48.138;21.002;2023-04-15T17:25:42;3.55;;;1.92;;
76125;SDS011;65174;48.138;21.002;2023-04-15T17:28:44;2.05;;;1.95;;
76125;SDS011;65174;48.138;21.002;2023-04-15T17:31:46;3.10;;;1.80;;
76125;SDS011;65174;48.138;21.002;2023-04-15T17:34:48;3.30;;;1.92;;
76125;SDS011;65174;48.138;21.002;2023-04-15T17:37:52;4.20;;;2.97;;
76125;SDS011;65174;48.138;21.002;2023-04-15T17:40:54;4.72;;;3.50;;
76125;SDS011;65174;48.138;21.002;2023-04-15T17:43:56;5.57;;;3.55;;
76125;SDS011;65174;48.138;21.002;2023-04-15T17:46:58;4.07;;;2.30;;
76125;SDS011;65174;48.138;21.002;2023-04-15T17:50:00;10.13;;;4.82;;
76125;SDS011;65174;48.138;21.002;2023-04-15T17:53:03;15.38;;;6.70;;
76125;SDS011;65174;48.138;21.002;2023-04-15T17:56:05;10.35;;;5.68;;
76125;SDS011;65174;48.138;21.002;2023-04-15T17:59:07;6.22;;;4.78;;
76125;SDS011;65174;48.138;21.002;2023-04-15T18:02:09;8.10;;;5.63;;
76125;SDS011;65174;48.138;21.002;2023-04-15T18:05:12;13.32;;;4.88;;
76125;SDS011;65174;48.138;21.002;2023-04-15T18:08:15;8.52;;;5.35;;
76125;SDS011;65174;48.138;21.002;2023-04-15T18:11:18;10.00;;;4.60;;
76125;SDS011;65174;48.138;21.002;2023-04-15T18:14:20;5.57;;;4.47;;